Arcadia, Iowa
Current Conditions -  °F | °C
As of 6:35 AM on Thursday 23 Oct 2014 (Local Time) from KCIN Reporting Station
Overcast Overcast  
Wind Chill: 14°   Ceiling: 3500
Heat Index: 14°   Visibility: 7mi
Dew Point: 14°   Wind: 7mph
Humidity: 100%   Direction: 220°SW
Pressure: 30.01"   Gusts: NA
Location:  42.09°N, 95.05°W
Report Text: KCIN 231135Z AUTO 22006KT 7SM FEW006 SCT011 OVC035 14/14 A3001 RMK AO2
Loading
Personal Weather Stations






























Interactive Weather Map
Tropical Storm Tracking
New forecast layout! Learn more

10-Day Weather Forecast

Advertisements
Track Severe Weather on mobile